Time;durP1;ratioP1;P1;durP2;ratioP2;P2;SDS_P1;SDS_P2;PMS_P1;PMS_P2;Temp;Humidity;BMP_temperature;BMP_pressure;BME280_temperature;BME280_humidity;BME280_pressure;Samples;Min_cycle;Max_cycle;Signal;HPM_P1;HPM_P2
2023/04/17 00:01:41;;;;;;;12.03;4.83;;;;;;;18.35;59.10;100809.13;5040427;28;20180;-62
2023/04/17 00:04:12;;;;;;;17.10;5.30;;;;;;;18.35;58.85;100812.84;5020628;28;20439;-62
2023/04/17 00:06:43;;;;;;;13.73;5.30;;;;;;;18.35;59.18;100801.41;5040288;28;20208;-62
2023/04/17 00:09:09;;;;;;;11.87;4.57;;;;;;;18.34;59.17;100808.31;5039450;28;20454;-62
2023/04/17 00:11:34;;;;;;;15.17;4.80;;;;;;;18.35;59.09;100806.25;5039984;28;20545;-62
2023/04/17 00:14:00;;;;;;;10.33;4.60;;;;;;;18.35;59.01;100809.97;5036909;28;20438;-62
2023/04/17 00:16:26;;;;;;;13.63;5.17;;;;;;;18.35;59.26;100806.25;5039002;28;20176;-62
2023/04/17 00:18:55;;;;;;;14.63;5.83;;;;;;;18.36;59.29;100813.66;5057113;28;20175;-62
2023/04/17 00:21:20;;;;;;;10.40;4.53;;;;;;;18.36;59.26;100802.25;5058305;28;20167;-62
2023/04/17 00:23:46;;;;;;;9.80;5.30;;;;;;;18.37;59.13;100804.69;5059399;28;20842;-62
2023/04/17 00:26:11;;;;;;;14.07;5.07;;;;;;;18.36;58.93;100802.25;5055320;28;20188;-62
2023/04/17 00:28:37;;;;;;;13.10;4.80;;;;;;;18.34;59.49;100802.59;5057827;28;20195;-62
2023/04/17 00:31:03;;;;;;;8.83;4.80;;;;;;;18.36;59.00;100805.09;5039077;28;20180;-62
2023/04/17 00:33:30;;;;;;;13.27;5.37;;;;;;;18.34;59.11;100798.91;5055715;28;20194;-62
2023/04/17 00:35:55;;;;;;;13.90;6.53;;;;;;;18.36;59.18;100791.63;5057834;28;20414;-62
2023/04/17 00:38:21;;;;;;;12.70;5.53;;;;;;;18.34;59.17;100796.88;5042092;28;20441;-62
2023/04/17 00:40:47;;;;;;;14.77;6.00;;;;;;;18.31;59.34;100791.84;5057343;28;20175;-62
2023/04/17 00:43:13;;;;;;;15.40;5.30;;;;;;;18.30;59.16;100784.47;5019218;28;20189;-62
2023/04/17 00:45:38;;;;;;;8.70;4.70;;;;;;;18.28;59.60;100784.03;5039751;28;20427;-62
2023/04/17 00:48:05;;;;;;;11.63;5.47;;;;;;;18.27;59.48;100788.06;5037345;28;20192;-62
2023/04/17 00:50:31;;;;;;;9.83;5.50;;;;;;;18.24;59.79;100782.25;5038980;28;20180;-62
2023/04/17 00:52:57;;;;;;;10.33;4.40;;;;;;;18.26;59.58;100785.59;5038875;28;20461;-62
2023/04/17 00:55:22;;;;;;;10.63;5.00;;;;;;;18.29;59.83;100779.97;5038829;28;20168;-62
2023/04/17 00:57:50;;;;;;;10.57;4.17;;;;;;;18.27;59.50;100767.25;5055095;28;20422;-62
2023/04/17 01:00:17;;;;;;;11.50;4.50;;;;;;;18.29;59.52;100774.25;5054124;28;20470;-62
2023/04/17 01:02:43;;;;;;;11.93;5.00;;;;;;;18.31;59.44;100771.03;5037459;28;20492;-62
2023/04/17 01:05:09;;;;;;;11.30;5.30;;;;;;;18.33;59.48;100778.06;5043516;28;20417;-62
2023/04/17 01:07:35;;;;;;;19.23;5.47;;;;;;;18.30;59.10;100767.34;5018812;28;20468;-62
2023/04/17 01:10:00;;;;;;;8.33;4.50;;;;;;;18.31;59.48;100773.91;5021666;28;20200;-62
2023/04/17 01:12:26;;;;;;;12.40;4.17;;;;;;;18.31;59.31;100771.84;5027277;28;20432;-62
2023/04/17 01:14:52;;;;;;;13.83;5.13;;;;;;;18.29;59.19;100771.41;5017149;28;20196;-62
2023/04/17 01:17:18;;;;;;;6.53;4.40;;;;;;;18.30;59.29;100773.06;5036693;28;20215;-62
2023/04/17 01:19:44;;;;;;;11.27;5.20;;;;;;;18.29;59.24;100773.41;5037903;28;20408;-62
2023/04/17 01:22:10;;;;;;;10.60;5.27;;;;;;;18.29;59.21;100774.25;5039008;28;20431;-62
2023/04/17 01:24:35;;;;;;;12.97;4.77;;;;;;;18.35;59.30;100766.25;5039057;28;20415;-62
2023/04/17 01:27:01;;;;;;;9.13;4.50;;;;;;;18.30;59.00;100773.06;5049303;28;20577;-62
2023/04/17 01:29:27;;;;;;;8.90;4.77;;;;;;;18.32;59.02;100773.53;5058699;28;20192;-62
2023/04/17 01:31:52;;;;;;;12.57;4.20;;;;;;;18.28;59.32;100772.59;5054598;28;20461;-62
2023/04/17 01:34:18;;;;;;;14.03;6.10;;;;;;;18.29;59.37;100774.25;5038098;28;20176;-62
2023/04/17 01:36:43;;;;;;;11.07;4.80;;;;;;;18.31;59.20;100776.75;5021731;28;20177;-62
2023/04/17 01:39:09;;;;;;;10.47;3.83;;;;;;;18.33;59.32;100774.38;5050632;28;20179;-62
2023/04/17 01:41:35;;;;;;;14.13;5.20;;;;;;;18.30;58.99;100778.78;5046789;28;20200;-62
2023/04/17 01:44:00;;;;;;;13.60;5.27;;;;;;;18.30;59.37;100770.19;5028460;28;20199;-62
2023/04/17 01:46:26;;;;;;;10.70;5.10;;;;;;;18.29;59.16;100774.25;5040405;28;21365;-62
2023/04/17 01:48:51;;;;;;;7.50;4.00;;;;;;;18.30;59.41;100772.22;5040470;28;20188;-62
2023/04/17 01:51:17;;;;;;;11.33;4.60;;;;;;;18.31;59.06;100777.56;5041710;28;20188;-62
2023/04/17 01:53:42;;;;;;;8.07;4.07;;;;;;;18.30;59.51;100777.94;5040622;28;20191;-62
2023/04/17 01:56:08;;;;;;;9.60;4.50;;;;;;;18.30;59.30;100775.91;5039579;28;20180;-62
2023/04/17 01:58:33;;;;;;;9.17;4.73;;;;;;;18.30;59.44;100780.78;5040741;28;20174;-62
2023/04/17 02:00:59;;;;;;;10.40;4.00;;;;;;;18.31;59.07;100782.47;5040208;28;20176;-62
2023/04/17 02:03:24;;;;;;;11.27;4.50;;;;;;;18.30;59.24;100780.78;5042177;28;20203;-62
2023/04/17 02:05:50;;;;;;;12.33;4.87;;;;;;;18.29;59.26;100774.25;5041071;28;20191;-62
2023/04/17 02:08:16;;;;;;;9.80;4.57;;;;;;;18.30;59.13;100773.06;5038827;28;20221;-62
2023/04/17 02:10:41;;;;;;;10.63;4.50;;;;;;;18.29;59.21;100773.41;5041488;28;20474;-62
2023/04/17 02:13:07;;;;;;;9.47;4.47;;;;;;;18.29;59.16;100771.41;5059638;28;20210;-62
2023/04/17 02:15:33;;;;;;;9.03;4.40;;;;;;;18.31;59.38;100776.75;5059399;28;20160;-62
2023/04/17 02:17:58;;;;;;;8.00;4.27;;;;;;;18.27;59.52;100759.47;5046824;28;20995;-62
2023/04/17 02:20:24;;;;;;;8.23;4.20;;;;;;;18.28;59.29;100774.63;5040689;28;20157;-62
2023/04/17 02:22:50;;;;;;;6.63;3.50;;;;;;;18.29;59.48;100776.28;5042369;28;20682;-62
2023/04/17 02:25:15;;;;;;;12.07;4.40;;;;;;;18.32;59.14;100773.53;5040566;28;20188;-62
2023/04/17 02:27:41;;;;;;;9.00;4.50;;;;;;;18.29;59.21;100768.53;5039921;28;20176;-62
2023/04/17 02:30:07;;;;;;;9.30;4.50;;;;;;;18.29;59.46;100768.53;5046928;28;20204;-62
2023/04/17 02:32:32;;;;;;;10.93;4.47;;;;;;;18.30;59.24;100775.06;5040025;28;20184;-62
2023/04/17 02:34:58;;;;;;;8.80;4.10;;;;;;;18.31;59.31;100765.31;5038670;28;20423;-62
2023/04/17 02:37:23;;;;;;;8.63;4.57;;;;;;;18.31;59.11;100762.47;5037830;28;20507;-62
2023/04/17 02:39:49;;;;;;;9.10;4.30;;;;;;;18.29;59.21;100774.25;5047498;28;20186;-62
2023/04/17 02:42:14;;;;;;;8.33;4.03;;;;;;;18.29;59.33;100774.25;5033406;28;20188;-62
2023/04/17 02:44:40;;;;;;;9.17;4.10;;;;;;;18.29;59.43;100771.41;5040298;28;20195;-62
2023/04/17 02:47:05;;;;;;;8.10;4.17;;;;;;;18.29;59.43;100767.69;5040199;28;20606;-62
2023/04/17 02:49:31;;;;;;;10.30;4.60;;;;;;;18.28;59.28;100778.31;5037502;28;20184;-62
2023/04/17 02:51:56;;;;;;;7.67;3.80;;;;;;;18.28;59.44;100766.03;5037834;28;20176;-62
2023/04/17 02:54:22;;;;;;;7.00;3.80;;;;;;;18.27;59.29;100770.91;5045365;28;20211;-62
2023/04/17 02:56:47;;;;;;;9.50;4.53;;;;;;;18.28;59.46;100771.75;5057557;28;20156;-62
2023/04/17 02:59:28;;;;;;;11.07;4.27;;;;;;;18.29;59.27;100767.69;5041317;28;20169;-62
2023/04/17 03:01:53;;;;;;;7.83;3.53;;;;;;;18.33;59.13;100769.50;5019241;28;20235;-62
2023/04/17 03:04:20;;;;;;;8.40;4.30;;;;;;;18.28;59.36;100766.88;5051436;28;20449;-62
2023/04/17 03:06:46;;;;;;;10.07;3.90;;;;;;;18.29;59.13;100768.53;5059103;28;20199;-62
2023/04/17 03:09:13;;;;;;;10.23;4.77;;;;;;;18.28;59.38;100766.03;5055422;28;20477;-62
2023/04/17 03:11:39;;;;;;;9.10;4.80;;;;;;;18.30;59.36;100753.03;5043205;28;20235;-62
2023/04/17 03:14:04;;;;;;;8.33;3.43;;;;;;;18.28;59.07;100758.31;5020004;28;20400;-62
2023/04/17 03:16:30;;;;;;;5.43;3.20;;;;;;;18.27;59.48;100756.63;5054713;28;20183;-62
2023/04/17 03:18:55;;;;;;;10.60;5.03;;;;;;;18.27;59.35;100761.53;5057801;28;20558;-62
2023/04/17 03:21:21;;;;;;;9.13;3.90;;;;;;;18.27;59.46;100752.97;5050363;28;20527;-62
2023/04/17 03:23:46;;;;;;;9.93;3.60;;;;;;;18.28;59.36;100766.03;5036901;28;20190;-62
2023/04/17 03:26:11;;;;;;;8.73;3.80;;;;;;;18.28;59.12;100766.88;5037931;28;20168;-62
2023/04/17 03:28:37;;;;;;;8.83;4.30;;;;;;;18.27;59.30;100765.19;5054492;28;20749;-62
2023/04/17 03:31:02;;;;;;;9.10;4.10;;;;;;;18.25;59.30;100767.59;5057679;28;20202;-62
2023/04/17 03:33:28;;;;;;;7.93;4.20;;;;;;;18.26;59.31;100772.13;5054988;28;20210;-62
2023/04/17 03:35:53;;;;;;;7.60;3.90;;;;;;;18.27;59.27;100773.78;5058212;28;20172;-62
2023/04/17 03:38:19;;;;;;;9.30;3.57;;;;;;;18.27;59.40;100776.63;5035164;28;20184;-62
2023/04/17 03:40:44;;;;;;;6.47;3.90;;;;;;;18.24;59.38;100774.53;5038358;28;20168;-62
2023/04/17 03:43:10;;;;;;;9.90;4.00;;;;;;;18.29;59.47;100773.41;5049895;28;20204;-62
2023/04/17 03:45:35;;;;;;;9.30;3.90;;;;;;;18.27;59.17;100782.34;5058428;28;20172;-62
2023/04/17 03:48:01;;;;;;;8.80;3.43;;;;;;;18.28;59.09;100775.47;5053416;28;20181;-62
2023/04/17 03:50:26;;;;;;;8.53;4.03;;;;;;;18.28;59.27;100778.31;5058520;28;20187;-62
2023/04/17 03:52:52;;;;;;;6.97;3.63;;;;;;;18.26;59.45;100780.69;5051454;28;20196;-62
2023/04/17 03:55:18;;;;;;;8.90;4.17;;;;;;;18.26;59.28;100783.56;5028305;28;20235;-62
2023/04/17 03:57:43;;;;;;;6.83;3.73;;;;;;;18.27;59.35;100775.81;5029242;28;20230;-62
2023/04/17 04:00:09;;;;;;;7.97;4.00;;;;;;;18.29;59.19;100787.72;5038832;28;20391;-62
2023/04/17 04:02:35;;;;;;;8.33;4.13;;;;;;;18.28;59.26;100778.31;5035929;28;20226;-62
2023/04/17 04:05:01;;;;;;;6.27;4.13;;;;;;;18.24;59.44;100780.25;5047490;28;20917;-62
2023/04/17 04:07:26;;;;;;;14.03;3.87;;;;;;;18.28;59.06;100772.59;5019799;28;20492;-62
2023/04/17 04:09:52;;;;;;;7.57;3.87;;;;;;;18.28;59.36;100780.34;5032722;28;20208;-62
2023/04/17 04:12:17;;;;;;;5.07;3.07;;;;;;;18.26;59.26;100785.59;5035130;28;20184;-62
2023/04/17 04:14:43;;;;;;;9.93;4.40;;;;;;;18.24;59.17;100780.25;5034396;28;20181;-62
2023/04/17 04:17:08;;;;;;;7.83;3.60;;;;;;;18.26;59.17;100779.88;5033293;28;20399;-62
2023/04/17 04:19:34;;;;;;;7.33;3.90;;;;;;;18.29;59.26;100784.84;5048523;28;20179;-62
2023/04/17 04:22:00;;;;;;;7.87;3.93;;;;;;;18.28;59.20;100783.19;5054251;28;20168;-62
2023/04/17 04:24:25;;;;;;;6.30;3.73;;;;;;;18.26;59.13;100786.41;5054089;28;20166;-62
2023/04/17 04:26:51;;;;;;;7.20;3.93;;;;;;;18.24;59.27;100794.53;5050319;28;20465;-62
2023/04/17 04:29:16;;;;;;;5.20;3.10;;;;;;;18.24;59.24;100791.69;5037268;28;20196;-62
2023/04/17 04:31:45;;;;;;;7.80;3.90;;;;;;;18.25;59.43;100789.63;5033668;28;20165;-62
2023/04/17 04:34:12;;;;;;;7.67;4.00;;;;;;;18.24;59.28;100788.81;5031647;28;20172;-62
2023/04/17 04:36:40;;;;;;;4.90;3.10;;;;;;;18.26;59.21;100789.28;5039410;28;20431;-62
2023/04/17 04:39:06;;;;;;;7.80;3.93;;;;;;;18.26;59.23;100791.31;5033042;28;20411;-62
2023/04/17 04:41:35;;;;;;;6.10;3.20;;;;;;;18.26;59.09;100797.03;5034774;28;20423;-62
2023/04/17 04:44:00;;;;;;;7.07;3.63;;;;;;;18.25;59.47;100790.47;5036297;28;20442;-62
2023/04/17 04:46:27;;;;;;;6.43;3.93;;;;;;;18.24;59.43;100799.41;5034052;28;20412;-62
2023/04/17 04:48:52;;;;;;;4.77;3.00;;;;;;;18.27;59.29;100799.50;5035313;28;20199;-62
2023/04/17 04:51:18;;;;;;;8.83;3.53;;;;;;;18.25;59.09;100792.50;5036974;28;20435;-62
2023/04/17 04:53:44;;;;;;;8.60;4.53;;;;;;;18.29;59.35;100802.00;5032764;28;20177;-62
2023/04/17 04:56:09;;;;;;;6.93;3.60;;;;;;;18.24;59.51;100802.25;5033403;28;20255;-62
2023/04/17 04:58:35;;;;;;;7.40;3.80;;;;;;;18.27;59.42;100808.06;5038646;28;20395;-62
2023/04/17 05:01:00;;;;;;;6.43;3.43;;;;;;;18.22;59.35;100808.34;5050836;28;20644;-62
2023/04/17 05:03:26;;;;;;;6.60;3.77;;;;;;;18.28;59.23;100806.06;5057075;28;20160;-62
2023/04/17 05:05:51;;;;;;;7.10;3.60;;;;;;;18.23;59.52;100807.16;5055149;28;20636;-62
2023/04/17 05:08:17;;;;;;;5.93;3.57;;;;;;;18.23;59.25;100804.31;5044362;28;20232;-62
2023/04/17 05:10:43;;;;;;;7.27;3.30;;;;;;;18.25;59.06;100807.63;5038158;28;20638;-62
2023/04/17 05:13:09;;;;;;;5.27;3.03;;;;;;;18.24;59.35;100805.97;5020655;28;20173;-62
2023/04/17 05:15:34;;;;;;;8.03;4.30;;;;;;;18.25;59.48;100810.47;5020969;28;20403;-62
2023/04/17 05:18:00;;;;;;;9.33;4.00;;;;;;;18.25;59.09;100803.91;5020191;28;20158;-62
2023/04/17 05:20:25;;;;;;;5.70;3.13;;;;;;;18.28;59.21;100812.63;5044869;28;20187;-62
2023/04/17 05:22:51;;;;;;;7.33;3.70;;;;;;;18.24;59.35;100805.97;5040550;28;20309;-62
2023/04/17 05:25:18;;;;;;;5.23;3.50;;;;;;;18.26;59.21;100814.19;5047452;28;20195;-62
2023/04/17 05:27:45;;;;;;;7.00;3.50;;;;;;;18.26;59.41;100805.59;5062314;28;20247;-62
2023/04/17 05:30:11;;;;;;;6.33;3.20;;;;;;;18.24;59.34;100807.97;5060026;28;20446;-62
2023/04/17 05:32:36;;;;;;;5.33;3.13;;;;;;;18.27;59.24;100808.06;5043195;28;20500;-62
2023/04/17 05:35:01;;;;;;;5.60;3.30;;;;;;;18.27;59.16;100810.13;5029444;28;20418;-62
2023/04/17 05:37:27;;;;;;;6.53;3.20;;;;;;;18.26;59.42;100815.00;5040413;28;20246;-62
2023/04/17 05:39:52;;;;;;;9.40;3.70;;;;;;;18.26;59.22;100815.00;5040404;28;20179;-62
2023/04/17 05:42:18;;;;;;;8.80;3.10;;;;;;;18.28;59.28;100806.06;5039778;28;20180;-62
2023/04/17 05:44:43;;;;;;;9.70;3.37;;;;;;;18.24;59.01;100800.25;5039710;28;20168;-62
2023/04/17 05:47:09;;;;;;;6.90;3.20;;;;;;;18.26;59.19;100803.56;5051490;28;20184;-62
2023/04/17 05:49:35;;;;;;;5.97;3.17;;;;;;;18.25;59.18;100813.34;5059547;28;20199;-62
2023/04/17 05:52:00;;;;;;;7.13;3.07;;;;;;;18.24;59.05;100817.41;5059839;28;20171;-62
2023/04/17 05:54:29;;;;;;;6.80;3.30;;;;;;;18.26;59.30;100819.91;5026331;28;20251;-62
2023/04/17 05:56:55;;;;;;;4.80;3.20;;;;;;;18.25;58.90;100818.22;5051238;28;20214;-62
2023/04/17 05:59:20;;;;;;;7.20;3.40;;;;;;;18.25;59.30;100821.06;5055317;28;20910;-62
2023/04/17 06:01:46;;;;;;;5.90;3.30;;;;;;;18.26;59.35;100820.72;5051516;28;20456;-62
2023/04/17 06:04:11;;;;;;;8.03;4.03;;;;;;;18.25;59.24;100823.94;5053742;28;20168;-62
2023/04/17 06:06:37;;;;;;;8.13;3.13;;;;;;;18.25;59.39;100816.19;5042513;28;20205;-62
2023/04/17 06:09:04;;;;;;;6.17;3.27;;;;;;;18.27;59.27;100824.41;5053005;28;20231;-62
2023/04/17 06:11:30;;;;;;;5.10;3.00;;;;;;;18.24;59.25;100825.97;5039507;28;20641;-62
2023/04/17 06:13:55;;;;;;;6.73;2.97;;;;;;;18.25;58.83;100818.22;5013764;28;20404;-62
2023/04/17 06:16:21;;;;;;;6.73;3.20;;;;;;;18.26;59.08;100832.13;5023448;28;20191;-62
2023/04/17 06:18:46;;;;;;;8.47;3.70;;;;;;;18.25;59.53;100836.19;5033276;28;20218;-62
2023/04/17 06:21:11;;;;;;;6.60;3.10;;;;;;;18.24;59.34;100823.13;5034384;28;20172;-62
2023/04/17 06:23:37;;;;;;;7.57;3.20;;;;;;;18.26;59.19;100826.44;5033834;28;20180;-63
2023/04/17 06:26:02;;;;;;;5.50;3.30;;;;;;;18.23;59.22;100830.03;5039692;28;20199;-63
2023/04/17 06:28:28;;;;;;;6.13;3.20;;;;;;;18.25;59.20;100829.63;5034730;28;20207;-62
2023/04/17 06:30:53;;;;;;;6.10;3.50;;;;;;;18.25;59.13;100838.22;5035294;28;20211;-62
2023/04/17 06:33:19;;;;;;;5.47;3.00;;;;;;;18.24;59.38;100843.13;5051271;28;20217;-62
2023/04/17 06:35:44;;;;;;;5.60;3.07;;;;;;;18.24;59.19;100843.13;5044691;28;20207;-62
2023/04/17 06:38:10;;;;;;;4.93;2.93;;;;;;;18.25;58.92;100838.22;5032963;28;20234;-62
2023/04/17 06:40:35;;;;;;;5.10;2.97;;;;;;;18.26;59.42;100840.72;5032986;28;20266;-62
2023/04/17 06:43:01;;;;;;;4.90;2.97;;;;;;;18.24;59.07;100845.97;5016922;28;20187;-61
2023/04/17 06:45:26;;;;;;;5.13;2.93;;;;;;;18.25;59.13;100841.06;5011194;28;20177;-61
2023/04/17 06:47:51;;;;;;;6.27;3.50;;;;;;;18.26;59.11;100848.47;5011132;28;20501;-62
2023/04/17 06:50:17;;;;;;;5.27;2.80;;;;;;;18.25;59.19;100847.63;5037562;28;20856;-62
2023/04/17 06:52:43;;;;;;;7.40;3.90;;;;;;;18.25;59.11;100835.34;5050924;28;20526;-62
2023/04/17 06:55:09;;;;;;;6.10;3.60;;;;;;;18.24;59.19;100840.25;5045238;28;20234;-62
2023/04/17 06:57:34;;;;;;;5.90;2.87;;;;;;;18.26;59.23;100842.75;5040812;28;20180;-60
2023/04/17 07:00:00;;;;;;;7.73;4.13;;;;;;;18.25;59.04;100839.06;5029535;28;20402;-60
2023/04/17 07:02:26;;;;;;;6.37;3.37;;;;;;;18.26;59.30;100848.47;5030469;28;20215;-59
2023/04/17 07:04:53;;;;;;;6.23;3.03;;;;;;;18.26;59.01;100839.91;5047710;28;20206;-59
2023/04/17 07:07:19;;;;;;;4.63;2.93;;;;;;;18.25;59.70;100849.66;5049458;28;20235;-59
2023/04/17 07:09:46;;;;;;;6.60;2.90;;;;;;;18.26;59.32;100845.63;5045107;28;20551;-59
2023/04/17 07:12:12;;;;;;;5.40;3.37;;;;;;;18.27;59.17;100853.81;5024672;28;20185;-60
2023/04/17 07:14:39;;;;;;;6.50;3.80;;;;;;;18.27;59.08;100861.56;5010485;28;20427;-59
2023/04/17 07:17:05;;;;;;;5.37;2.90;;;;;;;18.26;59.20;100854.19;5010705;28;20381;-60
2023/04/17 07:19:32;;;;;;;7.10;3.80;;;;;;;18.28;58.93;100855.50;5032471;28;20466;-62
2023/04/17 07:21:57;;;;;;;9.03;3.00;;;;;;;18.28;59.22;100858.34;5030416;28;20164;-62
2023/04/17 07:24:22;;;;;;;4.90;3.00;;;;;;;18.27;59.08;100862.38;5030260;28;20431;-60
2023/04/17 07:26:48;;;;;;;5.83;3.50;;;;;;;18.27;59.09;100865.22;5032219;28;20665;-61
2023/04/17 07:29:14;;;;;;;8.40;3.17;;;;;;;18.26;59.05;100857.88;5027879;28;20201;-60
2023/04/17 07:31:39;;;;;;;6.07;3.27;;;;;;;18.27;59.05;100859.53;5032510;28;20184;-60
2023/04/17 07:34:04;;;;;;;5.97;3.10;;;;;;;18.27;59.16;100861.56;5029931;28;20180;-60
2023/04/17 07:36:30;;;;;;;4.43;3.20;;;;;;;18.26;58.96;100868.47;5031210;28;20210;-60
2023/04/17 07:38:55;;;;;;;5.00;3.00;;;;;;;18.28;58.87;100863.22;5029686;28;20188;-60
2023/04/17 07:41:21;;;;;;;6.30;3.80;;;;;;;18.28;59.03;100869.78;5029094;28;20195;-60
2023/04/17 07:43:46;;;;;;;10.20;3.10;;;;;;;18.29;59.04;100868.56;5030798;28;20192;-60
2023/04/17 07:46:12;;;;;;;4.87;3.13;;;;;;;18.24;59.08;100857.41;5048973;28;20176;-60
2023/04/17 07:48:38;;;;;;;5.90;3.00;;;;;;;18.27;59.01;100865.22;5033144;28;20200;-60
2023/04/17 07:51:03;;;;;;;7.10;3.57;;;;;;;18.26;58.98;100863.56;5042008;28;20183;-60
2023/04/17 07:53:29;;;;;;;6.40;3.67;;;;;;;18.26;59.03;100875.00;5049745;28;20475;-60
2023/04/17 07:55:57;;;;;;;6.27;3.20;;;;;;;18.28;59.24;100869.78;5049728;28;20164;-60
2023/04/17 07:58:22;;;;;;;5.47;3.10;;;;;;;18.27;59.51;100867.28;5045663;28;20180;-60
2023/04/17 08:00:49;;;;;;;5.50;3.27;;;;;;;18.26;59.06;100872.16;5024898;28;20442;-60
2023/04/17 08:03:14;;;;;;;5.80;2.93;;;;;;;18.26;59.21;100871.34;5046516;28;20177;-60
2023/04/17 08:05:40;;;;;;;5.30;3.00;;;;;;;18.28;59.40;100875.50;5029587;28;20438;-60
2023/04/17 08:08:05;;;;;;;5.00;3.00;;;;;;;18.26;58.97;100880.72;5039713;28;20706;-60
2023/04/17 08:10:31;;;;;;;6.20;3.13;;;;;;;18.26;58.99;100874.19;5039882;28;20539;-60
2023/04/17 08:12:56;;;;;;;5.70;3.13;;;;;;;18.26;59.46;100875.00;5028794;28;20543;-60
2023/04/17 08:15:22;;;;;;;6.50;3.33;;;;;;;18.26;59.96;100872.16;5027295;28;20847;-60
2023/04/17 08:17:48;;;;;;;4.20;2.80;;;;;;;18.24;59.30;100883.13;5027707;28;20214;-60
2023/04/17 08:20:14;;;;;;;5.47;3.70;;;;;;;18.24;59.31;100891.72;5027663;28;20570;-60
2023/04/17 08:22:40;;;;;;;4.13;2.70;;;;;;;18.23;59.43;100883.50;5034768;28;20441;-60
2023/04/17 08:25:08;;;;;;;6.63;3.23;;;;;;;18.22;59.41;100885.50;5037876;28;20226;-59
2023/04/17 08:27:37;;;;;;;5.20;2.90;;;;;;;18.23;59.22;100872.91;5028578;28;20473;-60
2023/04/17 08:30:04;;;;;;;5.03;3.10;;;;;;;18.22;59.57;100879.78;5029508;28;20458;-60
2023/04/17 08:32:35;;;;;;;5.63;2.93;;;;;;;18.22;59.04;100881.84;5031477;28;20870;-60
2023/04/17 08:35:01;;;;;;;5.10;3.20;;;;;;;18.24;59.22;100877.41;5028299;28;20451;-60
2023/04/17 08:37:27;;;;;;;6.27;3.67;;;;;;;18.26;59.08;100879.91;5035906;28;20487;-60
2023/04/17 08:39:52;;;;;;;4.40;3.10;;;;;;;18.26;59.09;100877.88;5036290;28;20173;-60
2023/04/17 08:42:18;;;;;;;5.93;3.50;;;;;;;18.26;59.36;100879.91;5031523;28;20426;-60
2023/04/17 08:44:43;;;;;;;5.90;3.03;;;;;;;18.23;59.40;100877.78;5049251;28;20713;-60
2023/04/17 08:47:09;;;;;;;4.67;2.70;;;;;;;18.25;59.33;100876.22;5050856;28;20550;-61
2023/04/17 08:49:34;;;;;;;8.00;3.13;;;;;;;18.23;59.00;100884.34;5032726;28;20210;-60
2023/04/17 08:52:03;;;;;;;5.20;2.70;;;;;;;18.24;59.09;100880.28;5045181;28;20540;-60
2023/04/17 08:54:32;;;;;;;6.07;3.03;;;;;;;18.24;58.88;100883.13;5050843;28;20641;-60
2023/04/17 08:57:00;;;;;;;6.53;2.80;;;;;;;18.26;59.14;100880.72;5050942;28;20426;-60
2023/04/17 08:59:25;;;;;;;5.70;3.37;;;;;;;18.26;59.09;100880.72;5017820;28;20434;-60
2023/04/17 09:02:01;;;;;;;5.33;3.20;;;;;;;18.28;59.13;100891.81;5032869;28;20921;-60
2023/04/17 09:04:43;;;;;;;5.27;3.23;;;;;;;18.28;58.98;100881.22;5047256;28;20183;-60
2023/04/17 09:07:10;;;;;;;5.30;3.20;;;;;;;18.31;58.89;100880.47;5032308;28;20467;-60
2023/04/17 09:09:54;;;;;;;5.67;3.03;;;;;;;18.33;58.95;100886.69;5036045;28;20473;-59
2023/04/17 09:12:23;;;;;;;5.73;3.03;;;;;;;18.31;58.80;100885.38;5038961;28;20423;-60
2023/04/17 09:14:49;;;;;;;6.50;3.27;;;;;;;18.30;59.15;100873.09;5032686;28;20473;-60
2023/04/17 09:17:16;;;;;;;4.80;2.83;;;;;;;18.29;58.94;100885.72;5031058;28;20458;-60
2023/04/17 09:20:03;;;;;;;3.90;2.63;;;;;;;18.30;59.02;100883.69;5034994;28;20525;-61
2023/04/17 09:22:28;;;;;;;5.23;2.90;;;;;;;18.28;58.87;100886.94;5032420;28;20399;-60
2023/04/17 09:24:54;;;;;;;4.50;3.13;;;;;;;18.29;59.09;100882.03;5034111;28;20802;-61
2023/04/17 09:27:23;;;;;;;3.73;2.60;;;;;;;18.30;58.81;100892.25;5031624;28;20164;-60
2023/04/17 09:30:09;;;;;;;5.47;3.00;;;;;;;18.27;58.83;100879.53;5029870;28;20262;-61
2023/04/17 09:32:34;;;;;;;5.90;3.13;;;;;;;18.29;59.05;100882.03;5030906;28;20439;-60
2023/04/17 09:35:01;;;;;;;6.03;2.93;;;;;;;18.29;58.72;100888.59;5035432;28;20492;-60
2023/04/17 09:37:47;;;;;;;6.10;3.17;;;;;;;18.27;59.20;100890.97;5031319;28;20218;-61
2023/04/17 09:40:13;;;;;;;4.03;2.73;;;;;;;18.28;59.18;100894.66;5031486;28;20605;-60
2023/04/17 09:42:55;;;;;;;4.67;2.60;;;;;;;18.27;59.05;100890.16;5033861;28;20438;-60
2023/04/17 09:45:23;;;;;;;7.17;3.50;;;;;;;18.24;59.08;100891.72;5028438;28;20663;-60
2023/04/17 09:47:54;;;;;;;4.93;3.00;;;;;;;18.24;59.05;100886.00;5031751;28;20454;-60
2023/04/17 09:50:26;;;;;;;4.97;2.50;;;;;;;18.28;59.06;100886.94;5034828;28;20493;-60
2023/04/17 09:52:52;;;;;;;5.77;3.10;;;;;;;18.29;58.99;100887.75;5048260;28;20433;-60
2023/04/17 09:55:22;;;;;;;5.97;3.17;;;;;;;18.31;58.90;100891.91;5031567;28;20445;-60
2023/04/17 09:57:54;;;;;;;5.30;2.80;;;;;;;18.28;58.97;100891.81;5048261;28;20426;-60
2023/04/17 10:00:21;;;;;;;6.00;3.40;;;;;;;18.26;58.99;100897.06;5044870;28;20419;-60
2023/04/17 10:02:48;;;;;;;6.17;2.80;;;;;;;18.23;59.32;100887.19;5031981;28;20918;-60
2023/04/17 10:05:13;;;;;;;4.83;2.70;;;;;;;18.24;59.12;100885.16;5034491;28;20906;-60
2023/04/17 10:07:39;;;;;;;5.50;2.60;;;;;;;18.27;59.14;100884.44;5051269;28;20477;-61
2023/04/17 10:10:08;;;;;;;4.60;3.00;;;;;;;18.27;59.11;100888.09;5037173;28;20204;-60
2023/04/17 10:12:35;;;;;;;4.93;2.70;;;;;;;18.26;59.47;100886.44;5015839;28;20189;-60
2023/04/17 10:15:00;;;;;;;4.00;2.47;;;;;;;18.26;59.06;100883.59;5006417;28;20416;-60
2023/04/17 10:17:27;;;;;;;4.57;2.97;;;;;;;18.26;58.97;100886.44;5028474;28;20587;-60
2023/04/17 10:19:54;;;;;;;6.03;2.87;;;;;;;18.26;59.24;100877.88;5051344;28;20152;-60
2023/04/17 10:22:20;;;;;;;4.67;2.77;;;;;;;18.24;59.01;100880.28;5049072;28;20413;-61
2023/04/17 10:24:52;;;;;;;4.30;2.60;;;;;;;18.28;58.92;100878.34;5032535;28;20899;-60
2023/04/17 10:27:26;;;;;;;6.70;3.33;;;;;;;18.27;59.07;100876.66;5029212;28;20153;-60
2023/04/17 10:29:59;;;;;;;4.97;2.83;;;;;;;18.27;58.78;100873.81;5040313;28;20980;-61
2023/04/17 10:32:27;;;;;;;4.23;3.00;;;;;;;18.27;59.00;100878.72;5049997;28;20464;-60
2023/04/17 10:34:54;;;;;;;5.77;2.80;;;;;;;18.28;58.96;100875.50;5045867;28;20439;-60
2023/04/17 10:37:22;;;;;;;3.83;2.83;;;;;;;18.30;59.08;100867.38;5042337;28;20446;-60
2023/04/17 10:40:00;;;;;;;3.80;2.53;;;;;;;18.34;58.71;100871.19;5032077;28;20443;-60
2023/04/17 10:42:28;;;;;;;6.37;2.93;;;;;;;18.35;58.74;100863.44;5034599;28;20431;-60
2023/04/17 10:44:56;;;;;;;5.23;2.70;;;;;;;18.36;58.72;100865.94;5033104;28;20435;-60
2023/04/17 10:47:21;;;;;;;4.30;2.70;;;;;;;18.40;58.64;100871.75;5026473;28;20501;-60
2023/04/17 10:49:47;;;;;;;3.97;2.17;;;;;;;18.41;59.02;100862.81;5030778;28;20824;-60
2023/04/17 10:52:36;;;;;;;5.27;2.77;;;;;;;18.41;58.56;100864.84;5031223;28;20215;-60
2023/04/17 10:55:21;;;;;;;4.13;2.70;;;;;;;18.40;58.64;100860.31;5030153;28;20822;-60
2023/04/17 10:58:04;;;;;;;4.27;2.60;;;;;;;18.39;58.51;100864.38;5029371;28;20415;-60
2023/04/17 11:00:31;;;;;;;4.87;2.90;;;;;;;18.39;58.59;100856.63;5046012;28;20446;-61
2023/04/17 11:02:57;;;;;;;5.33;2.93;;;;;;;18.38;58.74;100857.00;5050778;28;20413;-60
2023/04/17 11:05:25;;;;;;;4.43;2.87;;;;;;;18.35;58.71;100852.00;5034241;28;20794;-60
2023/04/17 11:07:51;;;;;;;5.10;3.00;;;;;;;18.33;58.40;100846.69;5030892;28;20231;-60
2023/04/17 11:10:19;;;;;;;6.00;2.97;;;;;;;18.35;58.59;100849.16;5048636;28;20473;-61
2023/04/17 11:12:49;;;;;;;4.43;2.60;;;;;;;18.36;58.70;100847.97;5015701;28;20185;-60
2023/04/17 11:15:15;;;;;;;5.97;3.20;;;;;;;18.35;58.63;100850.00;5007440;28;20412;-60
2023/04/17 11:17:49;;;;;;;4.90;2.57;;;;;;;18.32;58.77;100845.00;5019094;28;20903;-61
2023/04/17 11:20:17;;;;;;;4.27;2.37;;;;;;;18.32;59.26;100841.28;5029173;28;21215;-60
2023/04/17 11:22:43;;;;;;;5.20;2.70;;;;;;;18.34;59.03;100836.06;5012025;28;20478;-62